createdAt,value
2023-03-22T00:01:53.614Z,5.77
2023-03-22T00:04:21.963Z,5.73
2023-03-22T00:06:51.411Z,5.43
2023-03-22T00:09:19.772Z,5.97
2023-03-22T00:11:50.907Z,5.83
2023-03-22T00:14:19.719Z,5.90
2023-03-22T00:16:49.254Z,6.13
2023-03-22T00:19:18.424Z,6.37
2023-03-22T00:21:47.803Z,6.17
2023-03-22T00:24:17.238Z,6.37
2023-03-22T00:26:47.298Z,6.20
2023-03-22T00:29:16.043Z,5.83
2023-03-22T00:31:44.823Z,5.67
2023-03-22T00:34:13.317Z,6.20
2023-03-22T00:36:42.858Z,5.57
2023-03-22T00:39:11.730Z,6.00
2023-03-22T00:41:41.574Z,6.00
2023-03-22T00:44:09.624Z,5.77
2023-03-22T00:46:38.390Z,6.07
2023-03-22T00:49:06.870Z,6.30
2023-03-22T00:51:35.254Z,6.07
2023-03-22T00:54:03.612Z,5.90
2023-03-22T00:56:33.937Z,6.27
2023-03-22T00:59:03.666Z,6.03
2023-03-22T01:01:32.079Z,5.47
2023-03-22T01:04:00.622Z,5.80
2023-03-22T01:06:29.034Z,6.57
2023-03-22T01:08:57.323Z,6.07
2023-03-22T01:11:26.502Z,6.03
2023-03-22T01:13:55.853Z,6.13
2023-03-22T01:16:25.383Z,6.10
2023-03-22T01:18:53.749Z,6.13
2023-03-22T01:21:22.618Z,6.43
2023-03-22T01:23:50.638Z,5.80
2023-03-22T01:26:18.992Z,5.43
2023-03-22T01:28:47.064Z,5.93
2023-03-22T01:31:15.495Z,6.13
2023-03-22T01:33:45.079Z,5.73
2023-03-22T01:36:13.524Z,6.03
2023-03-22T01:38:42.118Z,5.87
2023-03-22T01:41:10.282Z,5.90
2023-03-22T01:43:38.620Z,6.43
2023-03-22T01:46:07.097Z,5.50
2023-03-22T01:48:36.536Z,5.63
2023-03-22T01:51:11.273Z,6.70
2023-03-22T01:53:44.069Z,5.43
2023-03-22T01:56:13.000Z,5.90
2023-03-22T01:58:41.682Z,6.40
2023-03-22T02:01:11.699Z,5.83
2023-03-22T02:03:48.138Z,6.80
2023-03-22T02:06:17.963Z,5.10
2023-03-22T02:08:46.341Z,5.57
2023-03-22T02:11:17.943Z,5.50
2023-03-22T02:14:03.598Z,5.23
2023-03-22T02:16:38.294Z,5.73
2023-03-22T02:19:30.649Z,6.40
2023-03-22T02:22:39.088Z,6.13
2023-03-22T02:25:17.627Z,5.87
2023-03-22T02:28:18.781Z,5.83
2023-03-22T02:30:57.694Z,6.10
2023-03-22T02:33:52.804Z,6.40
2023-03-22T02:36:30.903Z,6.30
2023-03-22T02:39:29.001Z,6.50
2023-03-22T02:42:15.268Z,5.97
2023-03-22T02:44:44.598Z,5.93
2023-03-22T02:47:17.538Z,6.50
2023-03-22T02:49:49.440Z,6.50
2023-03-22T02:52:25.354Z,6.30
2023-03-22T02:54:58.553Z,7.17
2023-03-22T02:57:31.439Z,6.93
2023-03-22T03:00:01.812Z,7.47
2023-03-22T03:02:30.823Z,7.00
2023-03-22T03:04:59.824Z,6.87
2023-03-22T03:07:31.379Z,7.10
2023-03-22T03:10:01.652Z,7.23
2023-03-22T03:12:30.344Z,7.57
2023-03-22T03:14:58.898Z,7.40
2023-03-22T03:17:42.510Z,7.07
2023-03-22T03:20:30.077Z,7.20
2023-03-22T03:23:13.840Z,6.90
2023-03-22T03:25:49.964Z,7.77
2023-03-22T03:28:23.192Z,6.63
2023-03-22T03:30:56.192Z,7.10
2023-03-22T03:33:27.079Z,6.80
2023-03-22T03:35:57.827Z,7.83
2023-03-22T03:38:29.273Z,6.93
2023-03-22T03:41:03.094Z,7.90
2023-03-22T03:43:31.697Z,7.17
2023-03-22T03:46:01.158Z,7.07
2023-03-22T03:48:31.362Z,7.50
2023-03-22T03:51:01.461Z,7.13
2023-03-22T03:53:30.033Z,6.83
2023-03-22T03:55:59.491Z,7.40
2023-03-22T03:58:30.499Z,7.20
2023-03-22T04:00:58.854Z,6.77
2023-03-22T04:03:27.197Z,7.50
2023-03-22T04:05:55.969Z,7.10
2023-03-22T04:08:24.260Z,6.80
2023-03-22T04:10:52.956Z,6.93
2023-03-22T04:13:24.616Z,7.10
2023-03-22T04:15:57.490Z,7.20
2023-03-22T04:18:29.690Z,6.57
2023-03-22T04:20:58.200Z,7.03
2023-03-22T04:23:26.545Z,6.43
2023-03-22T04:25:54.854Z,6.40
2023-03-22T04:28:26.094Z,6.53
2023-03-22T04:30:54.701Z,6.77
2023-03-22T04:33:23.235Z,6.63
2023-03-22T04:35:56.774Z,6.50
2023-03-22T04:38:26.105Z,6.70
2023-03-22T04:40:55.406Z,7.80
2023-03-22T04:43:25.209Z,6.60
2023-03-22T04:45:54.772Z,7.33
2023-03-22T04:48:24.400Z,6.50
2023-03-22T04:50:53.331Z,6.87
2023-03-22T04:53:27.543Z,6.70
2023-03-22T04:55:57.033Z,7.67
2023-03-22T04:58:27.270Z,6.83
2023-03-22T05:00:55.839Z,6.97
2023-03-22T05:03:24.347Z,6.60
2023-03-22T05:05:53.635Z,6.70
2023-03-22T05:08:22.351Z,6.90
2023-03-22T05:10:51.058Z,6.90
2023-03-22T05:13:19.493Z,7.03
2023-03-22T05:15:50.246Z,6.50
2023-03-22T05:18:20.499Z,7.20
2023-03-22T05:20:49.201Z,6.97
2023-03-22T05:23:19.191Z,7.10
2023-03-22T05:25:47.614Z,6.47
2023-03-22T05:28:16.729Z,7.20
2023-03-22T05:30:56.640Z,7.37
2023-03-22T05:33:25.227Z,6.50
2023-03-22T05:35:53.272Z,6.93
2023-03-22T05:38:22.874Z,6.93
2023-03-22T05:40:51.274Z,7.17
2023-03-22T05:43:19.836Z,7.30
2023-03-22T05:45:49.128Z,7.23
2023-03-22T05:48:19.055Z,7.37
2023-03-22T05:50:47.607Z,7.27
2023-03-22T05:53:15.655Z,8.03
2023-03-22T05:55:44.890Z,7.37
2023-03-22T05:58:18.927Z,7.67
2023-03-22T06:00:49.616Z,7.00
2023-03-22T06:03:19.382Z,7.47
2023-03-22T06:05:50.767Z,7.97
2023-03-22T06:08:19.218Z,7.47
2023-03-22T06:10:50.409Z,7.97
2023-03-22T06:13:18.817Z,6.87
2023-03-22T06:15:47.460Z,6.97
2023-03-22T06:18:15.875Z,7.00
2023-03-22T06:20:45.372Z,8.00
2023-03-22T06:23:13.784Z,7.13
2023-03-22T06:25:41.864Z,7.20
2023-03-22T06:28:10.256Z,7.57
2023-03-22T06:30:38.941Z,6.57
2023-03-22T06:33:07.575Z,7.60
2023-03-22T06:35:36.414Z,7.40
2023-03-22T06:38:06.449Z,8.23
2023-03-22T06:40:35.775Z,7.47
2023-03-22T06:43:07.018Z,6.77
2023-03-22T06:45:36.048Z,7.70
2023-03-22T06:48:04.552Z,6.57
2023-03-22T06:50:33.678Z,7.00
2023-03-22T06:53:02.067Z,6.97
2023-03-22T06:55:33.302Z,7.10
2023-03-22T06:58:02.239Z,7.10
2023-03-22T07:00:30.880Z,6.43
2023-03-22T07:03:00.840Z,8.07
2023-03-22T07:05:29.171Z,7.57
2023-03-22T07:07:57.554Z,6.80
2023-03-22T07:10:25.985Z,6.97
2023-03-22T07:12:55.726Z,7.27
2023-03-22T07:15:24.868Z,6.70
2023-03-22T07:17:53.384Z,7.40
2023-03-22T07:20:21.972Z,6.20
2023-03-22T07:22:51.942Z,6.07
2023-03-22T07:25:21.005Z,6.90
2023-03-22T07:27:49.331Z,6.10
2023-03-22T07:30:18.938Z,6.60
2023-03-22T07:32:47.403Z,6.50
2023-03-22T07:35:16.739Z,5.90
2023-03-22T07:37:45.139Z,6.67
2023-03-22T07:40:14.079Z,6.17
2023-03-22T07:42:42.491Z,6.17
2023-03-22T07:45:11.158Z,6.53
2023-03-22T07:47:41.656Z,5.47
2023-03-22T07:50:11.793Z,6.63
2023-03-22T07:52:40.380Z,6.47
2023-03-22T07:55:09.104Z,6.37
2023-03-22T07:57:37.902Z,5.93
2023-03-22T08:00:07.564Z,6.20
2023-03-22T08:02:35.980Z,5.47
2023-03-22T08:05:05.889Z,6.07
2023-03-22T08:07:34.291Z,5.87
2023-03-22T08:10:02.862Z,5.93
2023-03-22T08:12:32.623Z,6.20
2023-03-22T08:15:01.647Z,6.20
2023-03-22T08:17:30.372Z,6.27
2023-03-22T08:19:58.824Z,6.07
2023-03-22T08:22:29.870Z,5.83
2023-03-22T08:24:58.208Z,5.97
2023-03-22T08:27:27.360Z,6.20
2023-03-22T08:29:56.335Z,6.17
2023-03-22T08:32:24.690Z,6.63
2023-03-22T08:34:53.448Z,6.67
2023-03-22T08:37:21.817Z,6.73
2023-03-22T08:39:51.467Z,6.67
2023-03-22T08:42:19.530Z,6.77
2023-03-22T08:44:47.844Z,6.40
2023-03-22T08:47:16.200Z,6.63
2023-03-22T08:49:44.630Z,6.70
2023-03-22T08:52:13.000Z,6.33
2023-03-22T08:54:41.014Z,6.17
2023-03-22T08:57:11.336Z,6.27
2023-03-22T08:59:40.236Z,5.73
2023-03-22T09:02:08.767Z,5.93
2023-03-22T09:04:36.958Z,6.17
2023-03-22T09:07:05.400Z,5.87
2023-03-22T09:09:33.759Z,6.77
2023-03-22T09:12:02.218Z,5.53
2023-03-22T09:14:31.646Z,6.47
2023-03-22T09:17:00.254Z,7.07
2023-03-22T09:19:28.340Z,6.87
2023-03-22T09:21:56.777Z,6.40
2023-03-22T09:24:26.076Z,6.00
2023-03-22T09:26:54.502Z,6.33
2023-03-22T09:29:22.566Z,7.00
2023-03-22T09:31:51.979Z,8.30
2023-03-22T09:34:20.187Z,7.87
2023-03-22T09:36:48.413Z,7.93
2023-03-22T09:39:16.691Z,7.05
2023-03-22T09:41:50.028Z,6.63
2023-03-22T09:44:26.096Z,7.13
2023-03-22T09:47:00.001Z,7.47
2023-03-22T09:49:46.950Z,6.45
2023-03-22T09:52:20.624Z,7.43
2023-03-22T09:54:51.479Z,6.10
2023-03-22T09:57:26.452Z,6.68
2023-03-22T09:59:59.479Z,6.80
2023-03-22T10:02:40.841Z,6.93
2023-03-22T10:05:15.743Z,6.43
2023-03-22T10:08:00.546Z,7.13
2023-03-22T10:10:31.658Z,8.77
2023-03-22T10:13:07.703Z,8.18
2023-03-22T10:15:39.301Z,8.43
2023-03-22T10:18:13.152Z,7.78
2023-03-22T10:20:45.041Z,6.88
2023-03-22T10:23:17.533Z,9.43
2023-03-22T10:25:45.760Z,7.80
2023-03-22T10:28:20.859Z,7.70
2023-03-22T10:30:54.428Z,7.75
2023-03-22T10:33:34.980Z,7.45
2023-03-22T10:36:05.514Z,6.75
2023-03-22T10:38:38.265Z,5.70
2023-03-22T10:41:08.427Z,6.10
2023-03-22T10:43:39.145Z,5.50
2023-03-22T10:46:14.232Z,5.13
2023-03-22T10:48:46.489Z,5.20
2023-03-22T10:51:24.263Z,5.75
2023-03-22T10:53:55.706Z,4.88
2023-03-22T10:56:23.870Z,5.20
2023-03-22T10:58:53.089Z,5.85
2023-03-22T11:01:28.735Z,6.35
2023-03-22T11:04:00.871Z,6.03
2023-03-22T11:06:32.898Z,6.40
2023-03-22T11:09:02.894Z,6.18
2023-03-22T11:11:33.570Z,6.72
2023-03-22T11:14:05.805Z,6.05
2023-03-22T11:16:42.799Z,5.70
2023-03-22T11:19:19.179Z,5.53
2023-03-22T11:21:47.425Z,6.13
2023-03-22T11:24:16.914Z,5.85
2023-03-22T11:27:03.950Z,5.30
2023-03-22T11:29:42.048Z,6.07
2023-03-22T11:32:23.460Z,5.88
2023-03-22T11:35:01.813Z,6.63
2023-03-22T11:37:30.082Z,5.75
2023-03-22T11:40:05.162Z,6.43
2023-03-22T11:42:35.889Z,5.88
2023-03-22T11:45:04.232Z,5.05
2023-03-22T11:47:37.897Z,5.50
2023-03-22T11:50:22.233Z,5.55
2023-03-22T11:52:50.745Z,5.97
2023-03-22T11:55:19.594Z,6.13
2023-03-22T11:57:50.195Z,6.25
2023-03-22T12:00:22.963Z,5.95
2023-03-22T12:02:53.481Z,5.82
2023-03-22T12:05:27.284Z,7.00
2023-03-22T12:08:00.569Z,5.53
2023-03-22T12:10:32.231Z,5.15
2023-03-22T12:13:04.732Z,5.60
2023-03-22T12:15:37.593Z,5.60
2023-03-22T12:18:12.135Z,5.00
2023-03-22T12:20:53.368Z,5.07
2023-03-22T12:23:24.092Z,5.22
2023-03-22T12:25:56.927Z,5.38
2023-03-22T12:28:31.948Z,4.82
2023-03-22T12:31:00.946Z,4.97
2023-03-22T12:33:32.214Z,4.32
2023-03-22T12:36:04.081Z,4.60
2023-03-22T12:38:40.651Z,5.15
2023-03-22T12:41:13.517Z,4.22
2023-03-22T12:43:49.532Z,4.78
2023-03-22T12:46:21.393Z,4.45
2023-03-22T12:48:52.272Z,4.47
2023-03-22T12:51:21.758Z,4.97
2023-03-22T12:53:53.148Z,4.47
2023-03-22T12:56:24.680Z,4.80
2023-03-22T12:58:55.834Z,4.33
2023-03-22T13:01:33.298Z,4.43
2023-03-22T13:04:01.774Z,4.43
2023-03-22T13:06:35.185Z,4.33
2023-03-22T13:09:16.938Z,4.45
2023-03-22T13:11:46.152Z,4.43
2023-03-22T13:14:56.131Z,3.90
2023-03-22T13:17:43.561Z,3.77
2023-03-22T13:20:28.208Z,4.03
2023-03-22T13:23:12.978Z,4.33
2023-03-22T13:26:01.017Z,3.60
2023-03-22T13:28:30.979Z,4.37
2023-03-22T13:31:00.050Z,4.33
2023-03-22T13:33:29.864Z,4.07
2023-03-22T13:36:00.311Z,4.40
2023-03-22T13:38:32.057Z,4.07
2023-03-22T13:41:06.525Z,3.20
2023-03-22T13:43:36.751Z,4.03
2023-03-22T13:46:43.842Z,4.13
2023-03-22T13:49:46.220Z,3.93
2023-03-22T13:52:26.771Z,4.05
2023-03-22T13:54:58.340Z,3.97
2023-03-22T13:57:50.286Z,3.90
2023-03-22T14:00:33.787Z,3.77
2023-03-22T14:03:04.381Z,4.13
2023-03-22T14:05:36.514Z,4.00
2023-03-22T14:08:05.962Z,3.97
2023-03-22T14:10:42.889Z,4.43
2023-03-22T14:13:18.814Z,4.00
2023-03-22T14:15:51.516Z,3.23
2023-03-22T14:18:25.741Z,4.20
2023-03-22T14:20:58.749Z,4.20
